CES5130 VHHH-RCKH
Flight info
| Callsign | CES5130 |
|---|---|
| Flight time | 1h 2m |
| Altitude | 37000 |
| Route | DUMEP V631 ENVAR M750 DADON G581 PORCH |
| Aircraft | A20N/M-SDE2E3FGHIRWXY/LB1 |
Departure
| Time | 2026-05-06 06:31 |
|---|---|
| Airport | Hong Kong International Airport (VHHH) |
Arrival
| Time | 2026-05-06 07:33 |
|---|---|
| Airport | Kaohsiung International Airport (RCKH) |
| Time | Latitude | Longitude | Altitude | Speed | Heading |
|---|---|---|---|---|---|
| 2026-05-06 06:11 | 22.30856 | 113.91398 | 31 ft | 0 kts | 251° |
| 2026-05-06 06:19 | 22.30859 | 113.91406 | 31 ft | 2 kts | 251° |
| 2026-05-06 06:19 | 22.30864 | 113.91420 | 31 ft | 2 kts | 251° |
| 2026-05-06 06:19 | 22.30868 | 113.91435 | 31 ft | 2 kts | 251° |
| 2026-05-06 06:19 | 22.30873 | 113.91451 | 31 ft | 2 kts | 251° |
| 2026-05-06 06:20 | 22.30880 | 113.91471 | 31 ft | 2 kts | 251° |
| 2026-05-06 06:20 | 22.30883 | 113.91481 | 32 ft | 2 kts | 251° |
| 2026-05-06 06:20 | 22.30889 | 113.91500 | 32 ft | 1 kts | 280° |
| 2026-05-06 06:20 | 22.30885 | 113.91510 | 32 ft | 2 kts | 311° |
| 2026-05-06 06:21 | 22.30878 | 113.91515 | 32 ft | 0 kts | 339° |
| 2026-05-06 06:21 | 22.30874 | 113.91517 | 32 ft | 1 kts | 344° |
| 2026-05-06 06:21 | 22.30871 | 113.91518 | 32 ft | 0 kts | 342° |
| 2026-05-06 06:22 | 22.30907 | 113.91505 | 31 ft | 8 kts | 341° |
| 2026-05-06 06:22 | 22.30952 | 113.91488 | 30 ft | 12 kts | 342° |
| 2026-05-06 06:23 | 22.31063 | 113.91447 | 30 ft | 14 kts | 340° |
| 2026-05-06 06:23 | 22.31133 | 113.91421 | 29 ft | 17 kts | 341° |
| 2026-05-06 06:23 | 22.31260 | 113.91376 | 29 ft | 20 kts | 342° |
| 2026-05-06 06:23 | 22.31366 | 113.91327 | 29 ft | 13 kts | 319° |
| 2026-05-06 06:24 | 22.31369 | 113.91213 | 29 ft | 11 kts | 253° |
| 2026-05-06 06:24 | 22.31347 | 113.91161 | 29 ft | 11 kts | 240° |
| 2026-05-06 06:24 | 22.31328 | 113.91093 | 29 ft | 8 kts | 252° |
| 2026-05-06 06:24 | 22.31307 | 113.91026 | 29 ft | 9 kts | 248° |
| 2026-05-06 06:25 | 22.31279 | 113.90953 | 28 ft | 11 kts | 248° |
| 2026-05-06 06:25 | 22.31237 | 113.90828 | 26 ft | 14 kts | 250° |
| 2026-05-06 06:25 | 22.31165 | 113.90616 | 26 ft | 5 kts | 250° |
| 2026-05-06 06:26 | 22.31152 | 113.90574 | 26 ft | 6 kts | 250° |
| 2026-05-06 06:26 | 22.31141 | 113.90541 | 26 ft | 7 kts | 253° |
| 2026-05-06 06:26 | 22.31121 | 113.90460 | 26 ft | 9 kts | 244° |
| 2026-05-06 06:26 | 22.31115 | 113.90443 | 26 ft | 3 kts | 252° |
| 2026-05-06 06:27 | 22.31106 | 113.90412 | 25 ft | 5 kts | 252° |
| 2026-05-06 06:27 | 22.31092 | 113.90366 | 25 ft | 7 kts | 250° |
| 2026-05-06 06:27 | 22.31065 | 113.90285 | 26 ft | 9 kts | 251° |
| 2026-05-06 06:27 | 22.31050 | 113.90237 | 27 ft | 10 kts | 251° |
| 2026-05-06 06:28 | 22.31025 | 113.90160 | 27 ft | 11 kts | 251° |
| 2026-05-06 06:28 | 22.30997 | 113.90070 | 27 ft | 13 kts | 251° |
| 2026-05-06 06:28 | 22.30964 | 113.89964 | 26 ft | 13 kts | 250° |
| 2026-05-06 06:28 | 22.30932 | 113.89877 | 26 ft | 11 kts | 249° |
| 2026-05-06 06:29 | 22.30924 | 113.89800 | 26 ft | 10 kts | 309° |
| 2026-05-06 06:29 | 22.31015 | 113.89761 | 25 ft | 9 kts | 341° |
| 2026-05-06 06:29 | 22.31061 | 113.89760 | 25 ft | 10 kts | 27° |
| 2026-05-06 06:29 | 22.31107 | 113.89851 | 25 ft | 10 kts | 69° |
| 2026-05-06 06:30 | 22.31126 | 113.89904 | 26 ft | 12 kts | 71° |
| 2026-05-06 06:30 | 22.31225 | 113.90211 | 21 ft | 79 kts | 69° |
| 2026-05-06 06:30 | 22.31586 | 113.91345 | 32 ft | 155 kts | 72° |
| 2026-05-06 06:30 | 22.31829 | 113.92104 | 260 ft | 165 kts | 71° |
| 2026-05-06 06:31 | 22.32208 | 113.93269 | 906 ft | 163 kts | 72° |
| 2026-05-06 06:31 | 22.32679 | 113.94724 | 1898 ft | 153 kts | 73° |
| 2026-05-06 06:31 | 22.32917 | 113.95470 | 2210 ft | 161 kts | 73° |
| 2026-05-06 06:31 | 22.33334 | 113.96648 | 2616 ft | 179 kts | 66° |
| 2026-05-06 06:32 | 22.34241 | 113.98276 | 3182 ft | 202 kts | 58° |
| 2026-05-06 06:32 | 22.34788 | 113.99147 | 3478 ft | 214 kts | 57° |
| 2026-05-06 06:32 | 22.35669 | 114.00535 | 3871 ft | 236 kts | 57° |
| 2026-05-06 06:32 | 22.36925 | 114.02511 | 4876 ft | 243 kts | 57° |
| 2026-05-06 06:33 | 22.37554 | 114.03507 | 5404 ft | 245 kts | 57° |
| 2026-05-06 06:33 | 22.38513 | 114.05028 | 6180 ft | 249 kts | 56° |
| 2026-05-06 06:33 | 22.39799 | 114.07121 | 7167 ft | 255 kts | 63° |
| 2026-05-06 06:33 | 22.40184 | 114.08318 | 7605 ft | 257 kts | 86° |
| 2026-05-06 06:34 | 22.39644 | 114.10841 | 8301 ft | 270 kts | 116° |
| 2026-05-06 06:34 | 22.38804 | 114.12719 | 8706 ft | 287 kts | 117° |
| 2026-05-06 06:34 | 22.38221 | 114.14033 | 8982 ft | 298 kts | 116° |
| 2026-05-06 06:34 | 22.37343 | 114.16084 | 9584 ft | 305 kts | 115° |
| 2026-05-06 06:35 | 22.36220 | 114.18806 | 10406 ft | 313 kts | 115° |
| 2026-05-06 06:35 | 22.35631 | 114.20255 | 10653 ft | 323 kts | 114° |
| 2026-05-06 06:35 | 22.34704 | 114.22546 | 10949 ft | 341 kts | 114° |
| 2026-05-06 06:35 | 22.33707 | 114.24935 | 11235 ft | 357 kts | 119° |
| 2026-05-06 06:36 | 22.31523 | 114.27669 | 11695 ft | 370 kts | 146° |
| 2026-05-06 06:36 | 22.29246 | 114.29007 | 12299 ft | 371 kts | 157° |
| 2026-05-06 06:36 | 22.27676 | 114.29758 | 12707 ft | 373 kts | 158° |
| 2026-05-06 06:36 | 22.25297 | 114.30949 | 13274 ft | 378 kts | 154° |
| 2026-05-06 06:37 | 22.22996 | 114.32357 | 13823 ft | 383 kts | 149° |
| 2026-05-06 06:37 | 22.20797 | 114.33971 | 14396 ft | 387 kts | 146° |
| 2026-05-06 06:37 | 22.18600 | 114.35698 | 14962 ft | 389 kts | 145° |
| 2026-05-06 06:37 | 22.16414 | 114.37437 | 15508 ft | 392 kts | 145° |
| 2026-05-06 06:38 | 22.13489 | 114.39761 | 16204 ft | 396 kts | 145° |
| 2026-05-06 06:38 | 22.12013 | 114.40929 | 16534 ft | 398 kts | 145° |
| 2026-05-06 06:38 | 22.09755 | 114.42712 | 17047 ft | 400 kts | 145° |
| 2026-05-06 06:38 | 22.07522 | 114.44473 | 17555 ft | 402 kts | 145° |
| 2026-05-06 06:39 | 22.05226 | 114.46284 | 18049 ft | 405 kts | 145° |
| 2026-05-06 06:39 | 22.02963 | 114.48068 | 18504 ft | 408 kts | 145° |
| 2026-05-06 06:39 | 22.00660 | 114.49882 | 18976 ft | 410 kts | 145° |
| 2026-05-06 06:39 | 21.98382 | 114.51743 | 19425 ft | 414 kts | 141° |
| 2026-05-06 06:40 | 21.96248 | 114.53849 | 19862 ft | 418 kts | 135° |
| 2026-05-06 06:40 | 21.94318 | 114.56201 | 20286 ft | 422 kts | 129° |
| 2026-05-06 06:40 | 21.92510 | 114.58727 | 20712 ft | 426 kts | 128° |
| 2026-05-06 06:40 | 21.90750 | 114.61258 | 21134 ft | 429 kts | 128° |
| 2026-05-06 06:41 | 21.88948 | 114.63850 | 21547 ft | 432 kts | 128° |
| 2026-05-06 06:41 | 21.87145 | 114.66434 | 21953 ft | 434 kts | 128° |
| 2026-05-06 06:41 | 21.85332 | 114.69019 | 22335 ft | 438 kts | 129° |
| 2026-05-06 06:41 | 21.82870 | 114.72517 | 22855 ft | 442 kts | 129° |
| 2026-05-06 06:42 | 21.80993 | 114.75178 | 23247 ft | 444 kts | 129° |
| 2026-05-06 06:42 | 21.79747 | 114.76945 | 23501 ft | 446 kts | 129° |
| 2026-05-06 06:42 | 21.77876 | 114.79594 | 23881 ft | 449 kts | 129° |
| 2026-05-06 06:42 | 21.76057 | 114.82355 | 24246 ft | 453 kts | 121° |
| 2026-05-06 06:43 | 21.74541 | 114.86539 | 24731 ft | 458 kts | 102° |
| 2026-05-06 06:43 | 21.74217 | 114.89954 | 25201 ft | 457 kts | 90° |
| 2026-05-06 06:43 | 21.74213 | 114.92223 | 25533 ft | 456 kts | 89° |
| 2026-05-06 06:43 | 21.74257 | 114.95615 | 25908 ft | 458 kts | 89° |
| 2026-05-06 06:44 | 21.74316 | 115.00203 | 26175 ft | 466 kts | 89° |
| 2026-05-06 06:44 | 21.74333 | 115.02541 | 26277 ft | 471 kts | 89° |
| 2026-05-06 06:44 | 21.74349 | 115.07246 | 26467 ft | 480 kts | 89° |
| 2026-05-06 06:44 | 21.74350 | 115.10874 | 26604 ft | 487 kts | 89° |
| 2026-05-06 06:45 | 21.74348 | 115.13319 | 26692 ft | 491 kts | 89° |
| 2026-05-06 06:45 | 21.74344 | 115.16988 | 26815 ft | 496 kts | 89° |
| 2026-05-06 06:45 | 21.74335 | 115.21925 | 26966 ft | 503 kts | 89° |
| 2026-05-06 06:45 | 21.74328 | 115.25719 | 27072 ft | 507 kts | 89° |
| 2026-05-06 06:46 | 21.74323 | 115.28258 | 27170 ft | 509 kts | 89° |
| 2026-05-06 06:46 | 21.74315 | 115.32050 | 27421 ft | 509 kts | 89° |
| 2026-05-06 06:46 | 21.74302 | 115.37080 | 27850 ft | 507 kts | 89° |
| 2026-05-06 06:46 | 21.74296 | 115.39587 | 28057 ft | 506 kts | 89° |
| 2026-05-06 06:47 | 21.74286 | 115.43401 | 28345 ft | 506 kts | 89° |
| 2026-05-06 06:47 | 21.74274 | 115.47132 | 28626 ft | 506 kts | 89° |
| 2026-05-06 06:47 | 21.74259 | 115.52198 | 29003 ft | 505 kts | 89° |
| 2026-05-06 06:47 | 21.74250 | 115.54708 | 29209 ft | 505 kts | 89° |
| 2026-05-06 06:48 | 21.74236 | 115.58424 | 29518 ft | 504 kts | 89° |
| 2026-05-06 06:48 | 21.74221 | 115.62199 | 29810 ft | 504 kts | 89° |
| 2026-05-06 06:48 | 21.74207 | 115.66009 | 29980 ft | 507 kts | 90° |
| 2026-05-06 06:48 | 21.74192 | 115.69810 | 30086 ft | 510 kts | 90° |
| 2026-05-06 06:49 | 21.74176 | 115.73639 | 30286 ft | 511 kts | 90° |
| 2026-05-06 06:49 | 21.74159 | 115.77415 | 30564 ft | 511 kts | 90° |
| 2026-05-06 06:49 | 21.74134 | 115.82471 | 30956 ft | 509 kts | 90° |
| 2026-05-06 06:49 | 21.74122 | 115.85022 | 31147 ft | 509 kts | 89° |
| 2026-05-06 06:50 | 21.74095 | 115.90089 | 31511 ft | 508 kts | 89° |
| 2026-05-06 06:50 | 21.74075 | 115.93881 | 31777 ft | 508 kts | 89° |
| 2026-05-06 06:50 | 21.74061 | 115.96421 | 31965 ft | 508 kts | 89° |
| 2026-05-06 06:50 | 21.74032 | 116.01445 | 32319 ft | 507 kts | 89° |
| 2026-05-06 06:51 | 21.74009 | 116.05228 | 32564 ft | 506 kts | 89° |
| 2026-05-06 06:51 | 21.73985 | 116.09010 | 32796 ft | 506 kts | 89° |
| 2026-05-06 06:51 | 21.73969 | 116.11513 | 32948 ft | 506 kts | 89° |
| 2026-05-06 06:51 | 21.73944 | 116.15282 | 33190 ft | 506 kts | 89° |
| 2026-05-06 06:52 | 21.73908 | 116.20345 | 33512 ft | 505 kts | 89° |
| 2026-05-06 06:52 | 21.73881 | 116.24094 | 33751 ft | 504 kts | 89° |
| 2026-05-06 06:52 | 21.73861 | 116.26622 | 33891 ft | 504 kts | 89° |
| 2026-05-06 06:52 | 21.73833 | 116.30393 | 34088 ft | 504 kts | 89° |
| 2026-05-06 06:53 | 21.73794 | 116.35368 | 34357 ft | 504 kts | 89° |
| 2026-05-06 06:53 | 21.73775 | 116.37870 | 34498 ft | 504 kts | 89° |
| 2026-05-06 06:53 | 21.73744 | 116.41644 | 34714 ft | 503 kts | 89° |
| 2026-05-06 06:53 | 21.73702 | 116.46630 | 34995 ft | 502 kts | 89° |
| 2026-05-06 06:54 | 21.73680 | 116.49120 | 35128 ft | 501 kts | 89° |
| 2026-05-06 06:54 | 21.73647 | 116.52836 | 35309 ft | 501 kts | 89° |
| 2026-05-06 06:54 | 21.73613 | 116.56587 | 35471 ft | 501 kts | 89° |
| 2026-05-06 06:54 | 21.73579 | 116.60336 | 35628 ft | 501 kts | 89° |
| 2026-05-06 06:55 | 21.73543 | 116.64056 | 35760 ft | 501 kts | 89° |
| 2026-05-06 06:55 | 21.73514 | 116.67799 | 35897 ft | 501 kts | 88° |
| 2026-05-06 06:55 | 21.73625 | 116.71533 | 36019 ft | 500 kts | 84° |
| 2026-05-06 06:55 | 21.73948 | 116.75253 | 36152 ft | 498 kts | 80° |
| 2026-05-06 06:56 | 21.74478 | 116.78881 | 36290 ft | 496 kts | 76° |
| 2026-05-06 06:56 | 21.75224 | 116.82501 | 36412 ft | 495 kts | 72° |
| 2026-05-06 06:56 | 21.76543 | 116.87229 | 36549 ft | 493 kts | 67° |
| 2026-05-06 06:57 | 21.78565 | 116.92935 | 36721 ft | 492 kts | 65° |
| 2026-05-06 06:57 | 21.80239 | 116.97485 | 36857 ft | 491 kts | 65° |
| 2026-05-06 06:57 | 21.81076 | 116.99766 | 36925 ft | 492 kts | 65° |
| 2026-05-06 06:58 | 21.83563 | 117.06599 | 36951 ft | 493 kts | 65° |
| 2026-05-06 06:58 | 21.86047 | 117.13467 | 36955 ft | 493 kts | 65° |
| 2026-05-06 06:59 | 21.88525 | 117.20343 | 36955 ft | 493 kts | 65° |
| 2026-05-06 06:59 | 21.90994 | 117.27206 | 36954 ft | 493 kts | 65° |
| 2026-05-06 07:00 | 21.93457 | 117.34061 | 36952 ft | 493 kts | 65° |
| 2026-05-06 07:00 | 21.95913 | 117.40911 | 36951 ft | 492 kts | 65° |
| 2026-05-06 07:01 | 21.98458 | 117.47765 | 36956 ft | 490 kts | 62° |
| 2026-05-06 07:01 | 22.01556 | 117.54241 | 36959 ft | 487 kts | 55° |
| 2026-05-06 07:02 | 22.05076 | 117.60449 | 36961 ft | 486 kts | 54° |
| 2026-05-06 07:02 | 22.08598 | 117.66612 | 36959 ft | 486 kts | 54° |
| 2026-05-06 07:03 | 22.12734 | 117.73895 | 36962 ft | 487 kts | 54° |
| 2026-05-06 07:03 | 22.15673 | 117.79085 | 36962 ft | 487 kts | 54° |
| 2026-05-06 07:04 | 22.19196 | 117.85317 | 36960 ft | 487 kts | 54° |
| 2026-05-06 07:04 | 22.23227 | 117.92628 | 36957 ft | 490 kts | 59° |
| 2026-05-06 07:05 | 22.25362 | 117.98332 | 36960 ft | 497 kts | 70° |
| 2026-05-06 07:05 | 22.26594 | 118.05682 | 36960 ft | 503 kts | 84° |
| 2026-05-06 07:06 | 22.26171 | 118.14535 | 36956 ft | 507 kts | 95° |
| 2026-05-06 07:06 | 22.25397 | 118.20808 | 36956 ft | 506 kts | 96° |
| 2026-05-06 07:07 | 22.24479 | 118.28302 | 36951 ft | 506 kts | 95° |
| 2026-05-06 07:07 | 22.23595 | 118.35837 | 36946 ft | 506 kts | 95° |
| 2026-05-06 07:08 | 22.22726 | 118.43325 | 36942 ft | 507 kts | 95° |
| 2026-05-06 07:08 | 22.21847 | 118.50858 | 36947 ft | 507 kts | 95° |
| 2026-05-06 07:09 | 22.20962 | 118.58379 | 36939 ft | 507 kts | 95° |
| 2026-05-06 07:09 | 22.19922 | 118.67212 | 36937 ft | 508 kts | 95° |
| 2026-05-06 07:10 | 22.19180 | 118.73500 | 36946 ft | 508 kts | 95° |
| 2026-05-06 07:10 | 22.18137 | 118.82288 | 36940 ft | 509 kts | 95° |
| 2026-05-06 07:11 | 22.17390 | 118.88555 | 36700 ft | 499 kts | 95° |
| 2026-05-06 07:11 | 22.16954 | 118.92207 | 36135 ft | 496 kts | 95° |
| 2026-05-06 07:11 | 22.16513 | 118.95894 | 35469 ft | 493 kts | 95° |
| 2026-05-06 07:11 | 22.16079 | 118.99512 | 34825 ft | 491 kts | 95° |
| 2026-05-06 07:12 | 22.15639 | 119.03156 | 34089 ft | 491 kts | 96° |
| 2026-05-06 07:12 | 22.15194 | 119.06815 | 33287 ft | 492 kts | 96° |
| 2026-05-06 07:12 | 22.14751 | 119.10455 | 32480 ft | 493 kts | 96° |
| 2026-05-06 07:12 | 22.14307 | 119.14135 | 31723 ft | 492 kts | 96° |
| 2026-05-06 07:13 | 22.13867 | 119.17773 | 31013 ft | 491 kts | 96° |
| 2026-05-06 07:13 | 22.13283 | 119.22584 | 30064 ft | 488 kts | 96° |
| 2026-05-06 07:13 | 22.12991 | 119.24984 | 29577 ft | 487 kts | 96° |
| 2026-05-06 07:13 | 22.12551 | 119.28594 | 28813 ft | 486 kts | 97° |
| 2026-05-06 07:14 | 22.12110 | 119.32201 | 28035 ft | 485 kts | 97° |
| 2026-05-06 07:14 | 22.11673 | 119.35770 | 27248 ft | 484 kts | 97° |
| 2026-05-06 07:14 | 22.11091 | 119.40514 | 26500 ft | 475 kts | 97° |
| 2026-05-06 07:14 | 22.10803 | 119.42861 | 26133 ft | 471 kts | 97° |
| 2026-05-06 07:15 | 22.10376 | 119.46330 | 25558 ft | 466 kts | 97° |
| 2026-05-06 07:15 | 22.09951 | 119.49776 | 24972 ft | 461 kts | 97° |
| 2026-05-06 07:15 | 22.09535 | 119.53155 | 24374 ft | 458 kts | 97° |
| 2026-05-06 07:15 | 22.09114 | 119.56565 | 23791 ft | 454 kts | 97° |
| 2026-05-06 07:16 | 22.08700 | 119.59911 | 23231 ft | 449 kts | 97° |
| 2026-05-06 07:16 | 22.08158 | 119.64281 | 22496 ft | 444 kts | 97° |
| 2026-05-06 07:16 | 22.07885 | 119.66487 | 22130 ft | 441 kts | 98° |
| 2026-05-06 07:16 | 22.07479 | 119.69730 | 21580 ft | 437 kts | 98° |
| 2026-05-06 07:17 | 22.07075 | 119.72945 | 21004 ft | 434 kts | 97° |
| 2026-05-06 07:17 | 22.06536 | 119.77238 | 20232 ft | 430 kts | 97° |
| 2026-05-06 07:17 | 22.06270 | 119.79358 | 19845 ft | 428 kts | 97° |
| 2026-05-06 07:17 | 22.05875 | 119.82501 | 19278 ft | 426 kts | 97° |
| 2026-05-06 07:18 | 22.05482 | 119.85623 | 18715 ft | 423 kts | 97° |
| 2026-05-06 07:18 | 22.05086 | 119.88769 | 18145 ft | 420 kts | 97° |
| 2026-05-06 07:18 | 22.04697 | 119.91852 | 17589 ft | 417 kts | 97° |
| 2026-05-06 07:18 | 22.04319 | 119.94905 | 17042 ft | 414 kts | 95° |
| 2026-05-06 07:19 | 22.04699 | 119.98930 | 16241 ft | 407 kts | 67° |
| 2026-05-06 07:19 | 22.05593 | 120.00696 | 15872 ft | 402 kts | 51° |
| 2026-05-06 07:19 | 22.07541 | 120.02838 | 15351 ft | 395 kts | 38° |
| 2026-05-06 07:19 | 22.09622 | 120.04712 | 14804 ft | 393 kts | 37° |
| 2026-05-06 07:20 | 22.12380 | 120.07248 | 14076 ft | 390 kts | 39° |
| 2026-05-06 07:20 | 22.13747 | 120.08562 | 13808 ft | 386 kts | 40° |
| 2026-05-06 07:20 | 22.15689 | 120.10484 | 13445 ft | 379 kts | 40° |
| 2026-05-06 07:20 | 22.17599 | 120.12419 | 13071 ft | 372 kts | 41° |
| 2026-05-06 07:21 | 22.19445 | 120.14314 | 12618 ft | 359 kts | 41° |
| 2026-05-06 07:21 | 22.21204 | 120.16137 | 12032 ft | 347 kts | 41° |
| 2026-05-06 07:21 | 22.22910 | 120.17909 | 11367 ft | 338 kts | 42° |
| 2026-05-06 07:21 | 22.24591 | 120.19660 | 10707 ft | 329 kts | 42° |
| 2026-05-06 07:22 | 22.26207 | 120.21347 | 10057 ft | 320 kts | 43° |
| 2026-05-06 07:22 | 22.27772 | 120.22984 | 9550 ft | 308 kts | 43° |
| 2026-05-06 07:22 | 22.29290 | 120.24573 | 8930 ft | 301 kts | 43° |
| 2026-05-06 07:22 | 22.30781 | 120.26134 | 8310 ft | 294 kts | 43° |
| 2026-05-06 07:23 | 22.32230 | 120.27651 | 7689 ft | 288 kts | 44° |
| 2026-05-06 07:23 | 22.33656 | 120.29143 | 7064 ft | 283 kts | 44° |
| 2026-05-06 07:23 | 22.35039 | 120.30592 | 6621 ft | 274 kts | 44° |
| 2026-05-06 07:23 | 22.36401 | 120.32018 | 6211 ft | 269 kts | 44° |
| 2026-05-06 07:24 | 22.37717 | 120.33401 | 5877 ft | 261 kts | 45° |
| 2026-05-06 07:24 | 22.39434 | 120.35205 | 5461 ft | 256 kts | 45° |
| 2026-05-06 07:24 | 22.40679 | 120.36515 | 5153 ft | 246 kts | 44° |
| 2026-05-06 07:24 | 22.41485 | 120.37361 | 4962 ft | 238 kts | 44° |
| 2026-05-06 07:25 | 22.42645 | 120.38580 | 4689 ft | 226 kts | 44° |
| 2026-05-06 07:25 | 22.44093 | 120.40100 | 4352 ft | 211 kts | 45° |
| 2026-05-06 07:25 | 22.44786 | 120.40829 | 4287 ft | 202 kts | 45° |
| 2026-05-06 07:25 | 22.45782 | 120.41876 | 4018 ft | 197 kts | 45° |
| 2026-05-06 07:26 | 22.46743 | 120.42888 | 3760 ft | 192 kts | 45° |
| 2026-05-06 07:26 | 22.47686 | 120.43879 | 3518 ft | 185 kts | 45° |
| 2026-05-06 07:26 | 22.48877 | 120.45132 | 3308 ft | 171 kts | 45° |
| 2026-05-06 07:26 | 22.49446 | 120.45731 | 3182 ft | 166 kts | 45° |
| 2026-05-06 07:27 | 22.50252 | 120.46578 | 2985 ft | 158 kts | 44° |
| 2026-05-06 07:27 | 22.51287 | 120.47669 | 2827 ft | 163 kts | 44° |
| 2026-05-06 07:27 | 22.51826 | 120.48237 | 2740 ft | 160 kts | 44° |
| 2026-05-06 07:27 | 22.52616 | 120.49069 | 2499 ft | 157 kts | 44° |
| 2026-05-06 07:28 | 22.53391 | 120.49885 | 2262 ft | 153 kts | 44° |
| 2026-05-06 07:28 | 22.54410 | 120.50957 | 2010 ft | 153 kts | 44° |
| 2026-05-06 07:28 | 22.55774 | 120.52134 | 1664 ft | 151 kts | 9° |
| 2026-05-06 07:29 | 22.56746 | 120.51782 | 1642 ft | 157 kts | 309° |
| 2026-05-06 07:29 | 22.57168 | 120.50691 | 1659 ft | 160 kts | 282° |
| 2026-05-06 07:29 | 22.57285 | 120.49490 | 1641 ft | 160 kts | 274° |
| 2026-05-06 07:29 | 22.57320 | 120.48292 | 1634 ft | 160 kts | 272° |
| 2026-05-06 07:30 | 22.57342 | 120.47076 | 1629 ft | 160 kts | 272° |
| 2026-05-06 07:30 | 22.57371 | 120.45864 | 1628 ft | 160 kts | 273° |
| 2026-05-06 07:30 | 22.57393 | 120.45068 | 1558 ft | 160 kts | 273° |
| 2026-05-06 07:30 | 22.57443 | 120.43483 | 1295 ft | 157 kts | 273° |
| 2026-05-06 07:31 | 22.57491 | 120.41952 | 1062 ft | 146 kts | 273° |
| 2026-05-06 07:31 | 22.57513 | 120.41222 | 925 ft | 143 kts | 273° |
| 2026-05-06 07:31 | 22.57547 | 120.40148 | 748 ft | 142 kts | 272° |
| 2026-05-06 07:31 | 22.57582 | 120.39096 | 578 ft | 141 kts | 271° |
| 2026-05-06 07:32 | 22.57615 | 120.38026 | 395 ft | 140 kts | 271° |
| 2026-05-06 07:32 | 22.57650 | 120.36985 | 219 ft | 138 kts | 270° |
| 2026-05-06 07:32 | 22.57674 | 120.35957 | 69 ft | 134 kts | 272° |
| 2026-05-06 07:32 | 22.57705 | 120.35031 | 39 ft | 104 kts | 273° |
| 2026-05-06 07:33 | 22.57728 | 120.34436 | 39 ft | 54 kts | 271° |
| 2026-05-06 07:33 | 22.57682 | 120.34168 | 39 ft | 11 kts | 177° |
| 2026-05-06 07:33 | 22.57646 | 120.34156 | 39 ft | 6 kts | 225° |
| 2026-05-06 07:33 | 22.57612 | 120.34127 | 39 ft | 6 kts | 203° |
| 2026-05-06 07:34 | 22.57564 | 120.34123 | 39 ft | 7 kts | 183° |
| 2026-05-06 07:34 | 22.57486 | 120.34121 | 39 ft | 8 kts | 180° |
| 2026-05-06 07:34 | 22.57449 | 120.34130 | 39 ft | 7 kts | 130° |
| 2026-05-06 07:34 | 22.57428 | 120.34164 | 39 ft | 7 kts | 122° |
| 2026-05-06 07:35 | 22.57414 | 120.34238 | 39 ft | 6 kts | 92° |
| 2026-05-06 07:35 | 22.57423 | 120.34267 | 39 ft | 6 kts | 33° |
| 2026-05-06 07:35 | 22.57443 | 120.34265 | 39 ft | 2 kts | 335° |
| 2026-05-06 07:35 | 22.57460 | 120.34263 | 39 ft | 1 kts | 356° |
| 2026-05-06 07:36 | 22.57477 | 120.34263 | 39 ft | 3 kts | 0° |
| 2026-05-06 07:36 | 22.57481 | 120.34263 | 39 ft | 0 kts | 0° |
| 2026-05-06 07:36 | 22.57483 | 120.34263 | 39 ft | 0 kts | 1° |